sensor_id;sensor_type;location;lat;lon;timestamp;pressure;altitude;pressure_sealevel;temperature;humidity
73143;BME280;61343;53.694;9.988;2022-08-19T00:01:53;100983.81;;;18.95;85.79
73143;BME280;61343;53.694;9.988;2022-08-19T00:04:22;100987.31;;;18.95;86.10
73143;BME280;61343;53.694;9.988;2022-08-19T00:06:47;100974.56;;;18.96;85.92
73143;BME280;61343;53.694;9.988;2022-08-19T00:09:16;100968.91;;;19.03;85.48
73143;BME280;61343;53.694;9.988;2022-08-19T00:11:43;100972.75;;;19.12;85.21
73143;BME280;61343;53.694;9.988;2022-08-19T00:14:10;100969.75;;;19.08;85.04
73143;BME280;61343;53.694;9.988;2022-08-19T00:16:37;100960.28;;;19.11;84.96
73143;BME280;61343;53.694;9.988;2022-08-19T00:19:04;100956.44;;;19.02;85.43
73143;BME280;61343;53.694;9.988;2022-08-19T00:21:30;100957.78;;;18.99;85.82
73143;BME280;61343;53.694;9.988;2022-08-19T00:23:55;100958.06;;;19.03;85.73
73143;BME280;61343;53.694;9.988;2022-08-19T00:26:24;100955.38;;;19.08;85.70
73143;BME280;61343;53.694;9.988;2022-08-19T00:28:49;100958.06;;;19.03;85.49
73143;BME280;61343;53.694;9.988;2022-08-19T00:31:14;100954.81;;;19.01;85.96
73143;BME280;61343;53.694;9.988;2022-08-19T00:33:41;100949.41;;;19.06;86.06
73143;BME280;61343;53.694;9.988;2022-08-19T00:36:07;100951.31;;;19.05;85.58
73143;BME280;61343;53.694;9.988;2022-08-19T00:38:35;100952.94;;;19.06;85.66
73143;BME280;61343;53.694;9.988;2022-08-19T00:41:01;100950.53;;;19.10;85.46
73143;BME280;61343;53.694;9.988;2022-08-19T00:43:27;100940.75;;;19.09;85.39
73143;BME280;61343;53.694;9.988;2022-08-19T00:45:53;100950.50;;;19.05;86.08
73143;BME280;61343;53.694;9.988;2022-08-19T00:48:19;100954.25;;;18.99;86.21
73143;BME280;61343;53.694;9.988;2022-08-19T00:50:47;100949.66;;;18.99;86.22
73143;BME280;61343;53.694;9.988;2022-08-19T00:53:15;100944.47;;;18.92;86.40
73143;BME280;61343;53.694;9.988;2022-08-19T00:55:45;100941.22;;;18.95;86.64
73143;BME280;61343;53.694;9.988;2022-08-19T00:58:14;100933.66;;;18.98;86.30
73143;BME280;61343;53.694;9.988;2022-08-19T01:00:40;100932.03;;;18.97;86.36
73143;BME280;61343;53.694;9.988;2022-08-19T01:03:09;100927.94;;;18.94;86.79
73143;BME280;61343;53.694;9.988;2022-08-19T01:05:35;100933.09;;;18.95;86.65
73143;BME280;61343;53.694;9.988;2022-08-19T01:08:03;100935.81;;;18.95;86.73
73143;BME280;61343;53.694;9.988;2022-08-19T01:10:32;100937.44;;;18.91;86.97
73143;BME280;61343;53.694;9.988;2022-08-19T01:13:00;100936.09;;;18.99;86.79
73143;BME280;61343;53.694;9.988;2022-08-19T01:15:31;100934.50;;;18.98;87.16
73143;BME280;61343;53.694;9.988;2022-08-19T01:18:01;100936.38;;;18.98;87.23
73143;BME280;61343;53.694;9.988;2022-08-19T01:20:29;100925.50;;;18.92;87.62
73143;BME280;61343;53.694;9.988;2022-08-19T01:22:57;100931.72;;;18.93;87.40
73143;BME280;61343;53.694;9.988;2022-08-19T01:25:27;100920.59;;;18.89;88.06
73143;BME280;61343;53.694;9.988;2022-08-19T01:27:53;100920.06;;;18.87;88.10
73143;BME280;61343;53.694;9.988;2022-08-19T01:30:26;100922.75;;;18.87;88.32
73143;BME280;61343;53.694;9.988;2022-08-19T01:32:53;100919.50;;;18.85;88.30
73143;BME280;61343;53.694;9.988;2022-08-19T01:35:20;100918.94;;;18.78;88.44
73143;BME280;61343;53.694;9.988;2022-08-19T01:37:56;100920.03;;;18.82;88.38
73143;BME280;61343;53.694;9.988;2022-08-19T01:40:24;100917.84;;;18.74;88.73
73143;BME280;61343;53.694;9.988;2022-08-19T01:42:51;100916.19;;;18.73;88.85
73143;BME280;61343;53.694;9.988;2022-08-19T01:45:19;100921.34;;;18.75;89.03
73143;BME280;61343;53.694;9.988;2022-08-19T01:47:45;100921.34;;;18.75;88.88
73143;BME280;61343;53.694;9.988;2022-08-19T01:50:11;100916.19;;;18.73;88.84
73143;BME280;61343;53.694;9.988;2022-08-19T01:52:38;100912.13;;;18.71;88.82
73143;BME280;61343;53.694;9.988;2022-08-19T01:55:05;100908.56;;;18.65;89.19
73143;BME280;61343;53.694;9.988;2022-08-19T01:57:31;100905.28;;;18.58;89.59
73143;BME280;61343;53.694;9.988;2022-08-19T01:59:57;100900.84;;;18.47;90.14
73143;BME280;61343;53.694;9.988;2022-08-19T02:02:22;100894.88;;;18.45;90.10
73143;BME280;61343;53.694;9.988;2022-08-19T02:04:48;100902.72;;;18.47;90.33
73143;BME280;61343;53.694;9.988;2022-08-19T02:07:13;100895.44;;;18.47;90.48
73143;BME280;61343;53.694;9.988;2022-08-19T02:09:38;100893.06;;;18.51;90.77
73143;BME280;61343;53.694;9.988;2022-08-19T02:12:04;100893.38;;;18.59;90.02
73143;BME280;61343;53.694;9.988;2022-08-19T02:14:30;100896.03;;;18.54;90.52
73143;BME280;61343;53.694;9.988;2022-08-19T02:16:56;100898.19;;;18.52;90.24
73143;BME280;61343;53.694;9.988;2022-08-19T02:19:21;100904.13;;;18.49;90.13
73143;BME280;61343;53.694;9.988;2022-08-19T02:21:47;100899.84;;;18.53;90.17
73143;BME280;61343;53.694;9.988;2022-08-19T02:24:12;100896.50;;;18.46;90.67
73143;BME280;61343;53.694;9.988;2022-08-19T02:26:37;100881.81;;;18.37;91.10
73143;BME280;61343;53.694;9.988;2022-08-19T02:29:03;100884.53;;;18.37;91.02
73143;BME280;61343;53.694;9.988;2022-08-19T02:31:28;100886.69;;;18.35;91.08
73143;BME280;61343;53.694;9.988;2022-08-19T02:33:54;100886.16;;;18.38;91.03
73143;BME280;61343;53.694;9.988;2022-08-19T02:36:21;100885.09;;;18.39;90.31
73143;BME280;61343;53.694;9.988;2022-08-19T02:38:46;100873.16;;;18.40;90.62
73143;BME280;61343;53.694;9.988;2022-08-19T02:41:18;100874.84;;;18.46;90.24
73143;BME280;61343;53.694;9.988;2022-08-19T02:43:45;100863.69;;;18.37;90.54
73143;BME280;61343;53.694;9.988;2022-08-19T02:46:22;100873.16;;;18.35;90.87
73143;BME280;61343;53.694;9.988;2022-08-19T02:48:49;100876.38;;;18.32;90.39
73143;BME280;61343;53.694;9.988;2022-08-19T02:51:18;100881.78;;;18.32;90.82
73143;BME280;61343;53.694;9.988;2022-08-19T02:53:43;100888.31;;;18.36;90.46
73143;BME280;61343;53.694;9.988;2022-08-19T02:56:09;100886.16;;;18.38;90.38
73143;BME280;61343;53.694;9.988;2022-08-19T02:58:34;100884.53;;;18.37;90.05
73143;BME280;61343;53.694;9.988;2022-08-19T03:00:59;100885.63;;;18.36;90.10
73143;BME280;61343;53.694;9.988;2022-08-19T03:03:25;100879.63;;;18.34;90.20
73143;BME280;61343;53.694;9.988;2022-08-19T03:05:51;100879.69;;;18.39;89.87
73143;BME280;61343;53.694;9.988;2022-08-19T03:08:17;100885.66;;;18.41;89.41
73143;BME280;61343;53.694;9.988;2022-08-19T03:10:44;100882.09;;;18.35;89.60
73143;BME280;61343;53.694;9.988;2022-08-19T03:13:13;100884.53;;;18.37;89.91
73143;BME280;61343;53.694;9.988;2022-08-19T03:15:41;100887.22;;;18.32;90.16
73143;BME280;61343;53.694;9.988;2022-08-19T03:18:07;100889.94;;;18.37;90.08
73143;BME280;61343;53.694;9.988;2022-08-19T03:20:32;100898.28;;;18.30;90.67
73143;BME280;61343;53.694;9.988;2022-08-19T03:22:58;100886.59;;;18.25;90.55
73143;BME280;61343;53.694;9.988;2022-08-19T03:25:23;100883.94;;;18.30;90.21
73143;BME280;61343;53.694;9.988;2022-08-19T03:27:49;100883.91;;;18.25;90.41
73143;BME280;61343;53.694;9.988;2022-08-19T03:30:14;100884.72;;;18.25;90.29
73143;BME280;61343;53.694;9.988;2022-08-19T03:32:40;100889.88;;;18.27;90.77
73143;BME280;61343;53.694;9.988;2022-08-19T03:35:06;100882.53;;;18.22;91.14
73143;BME280;61343;53.694;9.988;2022-08-19T03:37:31;100885.84;;;18.29;90.35
73143;BME280;61343;53.694;9.988;2022-08-19T03:39:56;100893.66;;;18.26;90.70
73143;BME280;61343;53.694;9.988;2022-08-19T03:42:22;100891.50;;;18.28;90.92
73143;BME280;61343;53.694;9.988;2022-08-19T03:44:47;100904.50;;;18.26;90.65
73143;BME280;61343;53.694;9.988;2022-08-19T03:47:12;100906.66;;;18.24;90.99
73143;BME280;61343;53.694;9.988;2022-08-19T03:49:41;100906.13;;;18.27;90.93
73143;BME280;61343;53.694;9.988;2022-08-19T03:52:07;100910.44;;;18.28;90.70
73143;BME280;61343;53.694;9.988;2022-08-19T03:54:33;100921.34;;;18.33;90.46
73143;BME280;61343;53.694;9.988;2022-08-19T03:56:59;100915.59;;;18.24;90.99
73143;BME280;61343;53.694;9.988;2022-08-19T03:59:27;100912.59;;;18.26;90.87
73143;BME280;61343;53.694;9.988;2022-08-19T04:01:54;100912.59;;;18.21;90.97
73143;BME280;61343;53.694;9.988;2022-08-19T04:04:20;100919.91;;;18.25;91.04
73143;BME280;61343;53.694;9.988;2022-08-19T04:06:46;100919.69;;;18.32;90.73
73143;BME280;61343;53.694;9.988;2022-08-19T04:09:12;100925.63;;;18.29;90.93
73143;BME280;61343;53.694;9.988;2022-08-19T04:11:44;100923.72;;;18.24;90.88
73143;BME280;61343;53.694;9.988;2022-08-19T04:14:13;100925.63;;;18.29;90.51
73143;BME280;61343;53.694;9.988;2022-08-19T04:16:39;100938.03;;;18.25;91.02
73143;BME280;61343;53.694;9.988;2022-08-19T04:19:05;100940.75;;;18.25;91.43
73143;BME280;61343;53.694;9.988;2022-08-19T04:21:30;100944.09;;;18.37;91.07
73143;BME280;61343;53.694;9.988;2022-08-19T04:23:56;100941.44;;;18.42;90.04
73143;BME280;61343;53.694;9.988;2022-08-19T04:26:25;100942.22;;;18.42;90.00
73143;BME280;61343;53.694;9.988;2022-08-19T04:28:52;100946.34;;;18.45;89.73
73143;BME280;61343;53.694;9.988;2022-08-19T04:31:21;100956.56;;;18.38;90.12
73143;BME280;61343;53.694;9.988;2022-08-19T04:33:46;100955.44;;;18.34;90.48
73143;BME280;61343;53.694;9.988;2022-08-19T04:36:20;100949.56;;;18.42;90.31
73143;BME280;61343;53.694;9.988;2022-08-19T04:38:48;100951.19;;;18.43;90.22
73143;BME280;61343;53.694;9.988;2022-08-19T04:41:14;100945.75;;;18.43;90.29
73143;BME280;61343;53.694;9.988;2022-08-19T04:43:57;100954.19;;;18.47;90.03
73143;BME280;61343;53.694;9.988;2022-08-19T04:46:23;100956.41;;;18.50;89.58
73143;BME280;61343;53.694;9.988;2022-08-19T04:48:48;100956.63;;;18.48;89.96
73143;BME280;61343;53.694;9.988;2022-08-19T04:51:14;100945.25;;;18.46;90.14
73143;BME280;61343;53.694;9.988;2022-08-19T04:53:41;100960.44;;;18.47;90.02
73143;BME280;61343;53.694;9.988;2022-08-19T04:56:14;100959.81;;;18.40;90.34
73143;BME280;61343;53.694;9.988;2022-08-19T04:58:42;100957.97;;;18.46;90.12
73143;BME280;61343;53.694;9.988;2022-08-19T05:01:11;100958.72;;;18.36;90.38
73143;BME280;61343;53.694;9.988;2022-08-19T05:03:37;100967.41;;;18.38;90.21
73143;BME280;61343;53.694;9.988;2022-08-19T05:06:11;100963.56;;;18.34;90.69
73143;BME280;61343;53.694;9.988;2022-08-19T05:08:39;100972.28;;;18.36;90.36
73143;BME280;61343;53.694;9.988;2022-08-19T05:11:14;100967.63;;;18.36;90.40
73143;BME280;61343;53.694;9.988;2022-08-19T05:13:42;100968.44;;;18.32;90.50
73143;BME280;61343;53.694;9.988;2022-08-19T05:16:09;100971.22;;;18.42;90.33
73143;BME280;61343;53.694;9.988;2022-08-19T05:18:35;100975.56;;;18.43;90.09
73143;BME280;61343;53.694;9.988;2022-08-19T05:21:20;100979.81;;;18.34;90.07
73143;BME280;61343;53.694;9.988;2022-08-19T05:24:05;100977.09;;;18.34;90.90
73143;BME280;61343;53.694;9.988;2022-08-19T05:26:37;100973.06;;;18.36;90.29
73143;BME280;61343;53.694;9.988;2022-08-19T05:29:03;100975.84;;;18.47;89.82
73143;BME280;61343;53.694;9.988;2022-08-19T05:31:29;100985.56;;;18.42;90.01
73143;BME280;61343;53.694;9.988;2022-08-19T05:33:55;100988.50;;;18.36;90.33
73143;BME280;61343;53.694;9.988;2022-08-19T05:36:23;100989.59;;;18.40;90.07
73143;BME280;61343;53.694;9.988;2022-08-19T05:38:48;100982.81;;;18.37;90.47
73143;BME280;61343;53.694;9.988;2022-08-19T05:41:15;100983.94;;;18.42;90.16
73143;BME280;61343;53.694;9.988;2022-08-19T05:43:42;100984.50;;;18.44;89.61
73143;BME280;61343;53.694;9.988;2022-08-19T05:46:07;100978.22;;;18.38;90.19
73143;BME280;61343;53.694;9.988;2022-08-19T05:48:34;100982.00;;;18.37;90.33
73143;BME280;61343;53.694;9.988;2022-08-19T05:51:06;100976.81;;;18.30;90.74
73143;BME280;61343;53.694;9.988;2022-08-19T05:53:33;100968.22;;;18.38;89.73
73143;BME280;61343;53.694;9.988;2022-08-19T05:56:06;100973.94;;;18.42;89.99
73143;BME280;61343;53.694;9.988;2022-08-19T05:58:32;100969.63;;;18.46;89.87
73143;BME280;61343;53.694;9.988;2022-08-19T06:00:58;100962.94;;;18.54;89.33
73143;BME280;61343;53.694;9.988;2022-08-19T06:03:30;100961.00;;;18.49;89.17
73143;BME280;61343;53.694;9.988;2022-08-19T06:05:55;100967.69;;;18.42;89.72
73143;BME280;61343;53.694;9.988;2022-08-19T06:08:20;100974.47;;;18.39;90.17
73143;BME280;61343;53.694;9.988;2022-08-19T06:10:46;100972.59;;;18.45;89.91
73143;BME280;61343;53.694;9.988;2022-08-19T06:13:11;100964.53;;;18.50;89.52
73143;BME280;61343;53.694;9.988;2022-08-19T06:15:36;100960.47;;;18.52;89.25
73143;BME280;61343;53.694;9.988;2022-08-19T06:18:02;100964.84;;;18.53;89.17
73143;BME280;61343;53.694;9.988;2022-08-19T06:20:27;100969.00;;;18.66;88.46
73143;BME280;61343;53.694;9.988;2022-08-19T06:22:52;100961.84;;;18.55;88.94
73143;BME280;61343;53.694;9.988;2022-08-19T06:25:18;100967.03;;;18.56;88.69
73143;BME280;61343;53.694;9.988;2022-08-19T06:27:44;100967.06;;;18.61;88.48
73143;BME280;61343;53.694;9.988;2022-08-19T06:30:10;100968.69;;;18.62;88.44
73143;BME280;61343;53.694;9.988;2022-08-19T06:32:36;100978.72;;;18.62;88.30
73143;BME280;61343;53.694;9.988;2022-08-19T06:35:01;100963.84;;;18.69;88.46
73143;BME280;61343;53.694;9.988;2022-08-19T06:37:26;100974.97;;;18.73;88.45
73143;BME280;61343;53.694;9.988;2022-08-19T06:39:52;100978.00;;;18.76;87.85
73143;BME280;61343;53.694;9.988;2022-08-19T06:42:17;100973.63;;;18.75;87.46
73143;BME280;61343;53.694;9.988;2022-08-19T06:44:46;100974.22;;;18.77;87.63
73143;BME280;61343;53.694;9.988;2022-08-19T06:47:14;100970.50;;;18.93;86.75
73143;BME280;61343;53.694;9.988;2022-08-19T06:49:40;100980.50;;;18.93;86.64
73143;BME280;61343;53.694;9.988;2022-08-19T06:52:06;100967.13;;;18.71;87.94
73143;BME280;61343;53.694;9.988;2022-08-19T06:54:31;100963.31;;;18.72;88.09
73143;BME280;61343;53.694;9.988;2022-08-19T06:56:58;100969.03;;;18.71;88.20
73143;BME280;61343;53.694;9.988;2022-08-19T06:59:26;100975.81;;;18.78;87.62
73143;BME280;61343;53.694;9.988;2022-08-19T07:01:54;100973.63;;;18.75;88.25
73143;BME280;61343;53.694;9.988;2022-08-19T07:04:22;100977.72;;;18.78;87.56
73143;BME280;61343;53.694;9.988;2022-08-19T07:06:49;100978.53;;;18.78;87.77
73143;BME280;61343;53.694;9.988;2022-08-19T07:09:17;100980.69;;;18.71;88.20
73143;BME280;61343;53.694;9.988;2022-08-19T07:11:47;100985.59;;;18.79;87.73
73143;BME280;61343;53.694;9.988;2022-08-19T07:14:15;100987.97;;;18.71;88.25
73143;BME280;61343;53.694;9.988;2022-08-19T07:16:43;100980.69;;;18.71;88.39
73143;BME280;61343;53.694;9.988;2022-08-19T07:19:10;100974.16;;;18.72;88.55
73143;BME280;61343;53.694;9.988;2022-08-19T07:21:35;100981.72;;;18.65;89.03
73143;BME280;61343;53.694;9.988;2022-08-19T07:24:00;100982.81;;;18.69;88.70
73143;BME280;61343;53.694;9.988;2022-08-19T07:26:29;100982.81;;;18.69;89.04
73143;BME280;61343;53.694;9.988;2022-08-19T07:28:56;100978.50;;;18.73;88.86
73143;BME280;61343;53.694;9.988;2022-08-19T07:31:24;100982.03;;;18.74;88.65
73143;BME280;61343;53.694;9.988;2022-08-19T07:33:51;100986.94;;;18.77;88.54
73143;BME280;61343;53.694;9.988;2022-08-19T07:36:20;100994.84;;;18.83;88.49
73143;BME280;61343;53.694;9.988;2022-08-19T07:38:48;100994.28;;;18.81;88.83
73143;BME280;61343;53.694;9.988;2022-08-19T07:41:20;100992.94;;;18.84;88.51
73143;BME280;61343;53.694;9.988;2022-08-19T07:43:46;100999.44;;;18.83;88.91
73143;BME280;61343;53.694;9.988;2022-08-19T07:46:13;101001.63;;;18.86;88.65
73143;BME280;61343;53.694;9.988;2022-08-19T07:48:40;101009.25;;;18.89;88.50
73143;BME280;61343;53.694;9.988;2022-08-19T07:51:07;101006.56;;;18.99;87.63
73143;BME280;61343;53.694;9.988;2022-08-19T07:53:34;101004.66;;;18.94;88.44
73143;BME280;61343;53.694;9.988;2022-08-19T07:56:00;101011.69;;;18.95;88.50
73143;BME280;61343;53.694;9.988;2022-08-19T07:58:34;101015.50;;;18.94;88.74
73143;BME280;61343;53.694;9.988;2022-08-19T08:01:00;101022.53;;;18.95;88.10
73143;BME280;61343;53.694;9.988;2022-08-19T08:03:27;101023.66;;;19.00;88.12
73143;BME280;61343;53.694;9.988;2022-08-19T08:06:13;101029.59;;;18.97;88.20
73143;BME280;61343;53.694;9.988;2022-08-19T08:08:57;101035.88;;;19.02;88.33
73143;BME280;61343;53.694;9.988;2022-08-19T08:14:17;101037.31;;;19.15;87.70
73143;BME280;61343;53.694;9.988;2022-08-19T08:16:42;101038.66;;;19.17;87.52
73143;BME280;61343;53.694;9.988;2022-08-19T08:19:09;101043.78;;;19.09;87.68
73143;BME280;61343;53.694;9.988;2022-08-19T08:21:35;101044.84;;;19.08;87.60
73143;BME280;61343;53.694;9.988;2022-08-19T08:24:01;101043.78;;;19.09;87.49
73143;BME280;61343;53.694;9.988;2022-08-19T08:26:26;101042.66;;;19.05;88.02
73143;BME280;61343;53.694;9.988;2022-08-19T08:28:52;101055.66;;;19.03;88.26
73143;BME280;61343;53.694;9.988;2022-08-19T08:31:18;101046.78;;;19.12;88.03
73143;BME280;61343;53.694;9.988;2022-08-19T08:33:44;101043.78;;;19.14;87.77
73143;BME280;61343;53.694;9.988;2022-08-19T08:36:11;101055.75;;;19.13;87.83
73143;BME280;61343;53.694;9.988;2022-08-19T08:38:37;101052.75;;;19.14;88.03
73143;BME280;61343;53.694;9.988;2022-08-19T08:41:18;101049.78;;;19.16;88.10
73143;BME280;61343;53.694;9.988;2022-08-19T08:43:49;101049.81;;;19.21;87.76
73143;BME280;61343;53.694;9.988;2022-08-19T08:46:30;101060.69;;;19.26;87.79
73143;BME280;61343;53.694;9.988;2022-08-19T08:51:41;101059.09;;;19.30;87.08
73143;BME280;61343;53.694;9.988;2022-08-19T08:54:10;101059.63;;;19.32;87.23
73143;BME280;61343;53.694;9.988;2022-08-19T08:56:41;101058.84;;;19.36;87.01
73143;BME280;61343;53.694;9.988;2022-08-19T08:59:16;101060.25;;;19.39;86.97
73143;BME280;61343;53.694;9.988;2022-08-19T09:01:44;101050.22;;;19.39;86.42
73143;BME280;61343;53.694;9.988;2022-08-19T09:04:11;101052.84;;;19.34;87.35
73143;BME280;61343;53.694;9.988;2022-08-19T09:06:46;101052.13;;;19.49;86.17
73143;BME280;61343;53.694;9.988;2022-08-19T09:09:20;101055.38;;;19.46;86.62
73143;BME280;61343;53.694;9.988;2022-08-19T09:12:02;101057.34;;;19.61;86.11
73143;BME280;61343;53.694;9.988;2022-08-19T09:14:46;101058.72;;;19.63;85.72
73143;BME280;61343;53.694;9.988;2022-08-19T09:17:14;101056.81;;;19.64;85.46
73143;BME280;61343;53.694;9.988;2022-08-19T09:19:55;101062.00;;;19.75;85.12
73143;BME280;61343;53.694;9.988;2022-08-19T09:22:21;101058.22;;;19.66;85.59
73143;BME280;61343;53.694;9.988;2022-08-19T09:24:50;101058.97;;;19.62;86.16
73143;BME280;61343;53.694;9.988;2022-08-19T09:27:18;101059.56;;;19.69;85.53
73143;BME280;61343;53.694;9.988;2022-08-19T09:29:43;101062.53;;;19.72;85.06
73143;BME280;61343;53.694;9.988;2022-08-19T09:32:08;101069.84;;;19.67;85.06
73143;BME280;61343;53.694;9.988;2022-08-19T09:34:33;101069.06;;;19.66;85.37
73143;BME280;61343;53.694;9.988;2022-08-19T09:36:59;101066.34;;;19.71;85.19
73143;BME280;61343;53.694;9.988;2022-08-19T09:39:25;101059.28;;;19.75;85.29
73143;BME280;61343;53.694;9.988;2022-08-19T09:41:50;101051.69;;;19.67;85.57
73143;BME280;61343;53.694;9.988;2022-08-19T09:44:17;101053.31;;;19.68;85.51
73143;BME280;61343;53.694;9.988;2022-08-19T09:46:42;101052.25;;;19.74;85.03
73143;BME280;61343;53.694;9.988;2022-08-19T09:49:08;101059.03;;;19.72;85.04
73143;BME280;61343;53.694;9.988;2022-08-19T09:51:33;101049.78;;;19.73;84.98
73143;BME280;61343;53.694;9.988;2022-08-19T09:54:03;101055.50;;;19.66;85.37
73143;BME280;61343;53.694;9.988;2022-08-19T09:56:29;101056.56;;;19.65;85.43
73143;BME280;61343;53.694;9.988;2022-08-19T09:58:58;101056.03;;;19.73;85.39
73143;BME280;61343;53.694;9.988;2022-08-19T10:01:27;101043.03;;;19.80;84.64
73143;BME280;61343;53.694;9.988;2022-08-19T10:03:55;101056.63;;;19.85;84.27
73143;BME280;61343;53.694;9.988;2022-08-19T10:06:26;101057.22;;;19.97;84.99
73143;BME280;61343;53.694;9.988;2022-08-19T10:08:54;101049.91;;;20.13;84.03
73143;BME280;61343;53.694;9.988;2022-08-19T10:11:20;101046.13;;;20.24;82.75
73143;BME280;61343;53.694;9.988;2022-08-19T10:13:47;101045.34;;;20.34;82.56
73143;BME280;61343;53.694;9.988;2022-08-19T10:16:15;101047.78;;;20.40;81.92
73143;BME280;61343;53.694;9.988;2022-08-19T10:18:42;101048.59;;;20.56;81.72
73143;BME280;61343;53.694;9.988;2022-08-19T10:23:37;101060.28;;;20.36;81.86
73143;BME280;61343;53.694;9.988;2022-08-19T10:26:04;101073.84;;;20.31;82.11
73143;BME280;61343;53.694;9.988;2022-08-19T10:28:31;101067.06;;;20.29;82.47
73143;BME280;61343;53.694;9.988;2022-08-19T10:30:57;101065.44;;;20.28;82.52
73143;BME280;61343;53.694;9.988;2022-08-19T10:33:22;101059.16;;;20.22;81.86
73143;BME280;61343;53.694;9.988;2022-08-19T10:35:58;101063.50;;;20.18;82.19
73143;BME280;61343;53.694;9.988;2022-08-19T10:38:24;101059.94;;;20.13;82.87
73143;BME280;61343;53.694;9.988;2022-08-19T10:40:50;101059.38;;;20.11;83.13
73143;BME280;61343;53.694;9.988;2022-08-19T10:43:15;101060.78;;;20.13;83.18
73143;BME280;61343;53.694;9.988;2022-08-19T10:45:41;101062.66;;;20.18;82.95
73143;BME280;61343;53.694;9.988;2022-08-19T10:48:07;101053.41;;;20.09;83.01
73143;BME280;61343;53.694;9.988;2022-08-19T10:50:32;101058.31;;;20.12;82.41
73143;BME280;61343;53.694;9.988;2022-08-19T10:53:16;101055.31;;;19.98;83.49
73143;BME280;61343;53.694;9.988;2022-08-19T10:55:41;101069.72;;;20.03;83.22
73143;BME280;61343;53.694;9.988;2022-08-19T10:58:25;101049.63;;;20.10;82.83
73143;BME280;61343;53.694;9.988;2022-08-19T11:00:57;101049.38;;;20.16;82.26
73143;BME280;61343;53.694;9.988;2022-08-19T11:03:24;101046.38;;;20.18;82.19
73143;BME280;61343;53.694;9.988;2022-08-19T11:06:06;101050.72;;;20.24;82.34
73143;BME280;61343;53.694;9.988;2022-08-19T11:08:32;101054.03;;;20.36;81.99
73143;BME280;61343;53.694;9.988;2022-08-19T11:11:01;101052.41;;;20.45;81.22
73143;BME280;61343;53.694;9.988;2022-08-19T11:13:32;101049.16;;;20.43;81.24
73143;BME280;61343;53.694;9.988;2022-08-19T11:16:09;101045.34;;;20.59;80.97
73143;BME280;61343;53.694;9.988;2022-08-19T11:18:37;101041.78;;;20.79;81.30
73143;BME280;61343;53.694;9.988;2022-08-19T11:21:31;101041.25;;;21.02;79.21
73143;BME280;61343;53.694;9.988;2022-08-19T11:23:58;101041.22;;;21.22;77.86
73143;BME280;61343;53.694;9.988;2022-08-19T11:26:25;101039.78;;;21.35;77.11
73143;BME280;61343;53.694;9.988;2022-08-19T11:28:51;101045.00;;;21.31;77.16
73143;BME280;61343;53.694;9.988;2022-08-19T11:31:21;101047.44;;;21.33;77.50
73143;BME280;61343;53.694;9.988;2022-08-19T11:33:47;101053.91;;;21.42;76.79
73143;BME280;61343;53.694;9.988;2022-08-19T11:36:16;101049.03;;;21.39;76.96
73143;BME280;61343;53.694;9.988;2022-08-19T11:38:41;101052.84;;;21.38;77.01
73143;BME280;61343;53.694;9.988;2022-08-19T11:41:07;101046.84;;;21.46;76.64
73143;BME280;61343;53.694;9.988;2022-08-19T11:43:34;101054.16;;;21.50;76.99
73143;BME280;61343;53.694;9.988;2022-08-19T11:45:59;101044.88;;;21.56;76.26
73143;BME280;61343;53.694;9.988;2022-08-19T11:48:25;101041.09;;;21.52;76.28
73143;BME280;61343;53.694;9.988;2022-08-19T11:50:52;101037.84;;;21.50;76.66
73143;BME280;61343;53.694;9.988;2022-08-19T11:53:20;101040.00;;;21.53;76.38
73143;BME280;61343;53.694;9.988;2022-08-19T11:55:49;101044.66;;;21.48;76.50
73143;BME280;61343;53.694;9.988;2022-08-19T11:58:16;101038.19;;;21.34;77.28
73143;BME280;61343;53.694;9.988;2022-08-19T12:00:42;101038.72;;;21.31;77.57
73143;BME280;61343;53.694;9.988;2022-08-19T12:03:10;101038.19;;;21.24;77.96
73143;BME280;61343;53.694;9.988;2022-08-19T12:05:38;101044.19;;;21.26;77.32
73143;BME280;61343;53.694;9.988;2022-08-19T12:08:04;101039.31;;;21.23;77.79
73143;BME280;61343;53.694;9.988;2022-08-19T12:10:29;101040.66;;;21.20;78.13
73143;BME280;61343;53.694;9.988;2022-08-19T12:12:54;101037.91;;;21.30;77.86
73143;BME280;61343;53.694;9.988;2022-08-19T12:15:19;101045.50;;;21.38;77.33
73143;BME280;61343;53.694;9.988;2022-08-19T12:17:45;101048.72;;;21.50;76.31
73143;BME280;61343;53.694;9.988;2022-08-19T12:20:12;101050.66;;;21.45;76.73
73143;BME280;61343;53.694;9.988;2022-08-19T12:22:39;101046.84;;;21.46;76.99
73143;BME280;61343;53.694;9.988;2022-08-19T12:25:06;101041.94;;;21.48;76.64
73143;BME280;61343;53.694;9.988;2022-08-19T12:27:32;101050.34;;;21.46;77.32
73143;BME280;61343;53.694;9.988;2022-08-19T12:29:57;101050.06;;;21.53;77.18
73143;BME280;61343;53.694;9.988;2022-08-19T12:32:25;101048.94;;;21.64;76.40
73143;BME280;61343;53.694;9.988;2022-08-19T12:34:51;101044.56;;;21.68;76.56
73143;BME280;61343;53.694;9.988;2022-08-19T12:37:16;101037.41;;;21.82;76.17
73143;BME280;61343;53.694;9.988;2022-08-19T12:39:43;101040.28;;;22.06;74.45
73143;BME280;61343;53.694;9.988;2022-08-19T12:42:10;101035.66;;;22.06;73.47
73143;BME280;61343;53.694;9.988;2022-08-19T12:44:37;101031.41;;;22.29;73.01
73143;BME280;61343;53.694;9.988;2022-08-19T12:47:03;101030.00;;;22.37;72.65
73143;BME280;61343;53.694;9.988;2022-08-19T12:49:30;101014.88;;;22.54;72.25
73143;BME280;61343;53.694;9.988;2022-08-19T12:51:56;101016.59;;;22.74;71.26
73143;BME280;61343;53.694;9.988;2022-08-19T12:54:23;101018.44;;;22.84;70.44
73143;BME280;61343;53.694;9.988;2022-08-19T12:56:48;101021.47;;;22.82;70.71
73143;BME280;61343;53.694;9.988;2022-08-19T12:59:13;101017.44;;;22.74;70.50
73143;BME280;61343;53.694;9.988;2022-08-19T13:01:40;101019.63;;;22.72;70.85